UAL565 KIAH-KAUS
Flight info
| Callsign | UAL565 |
|---|---|
| Flight time | 0h 28m |
| Altitude | 14000 |
| Route | PITZZ5 MNURE WLEEE7 |
| Aircraft | B738/M-SDE2E3FGHIRWXY/LB1 |
Departure
| Time | 2026-05-06 17:37 |
|---|---|
| Airport | George Bush Intercontinental Airport (KIAH) |
Arrival
| Time | 2026-05-06 18:05 |
|---|---|
| Airport | Austin Bergstrom International Airport (KAUS) |
| Time | Latitude | Longitude | Altitude | Speed | Heading |
|---|---|---|---|---|---|
| 2026-05-06 16:57 | 29.98531 | -95.34742 | 106 ft | 0 kts | 44° |
| 2026-05-06 17:26 | 29.98523 | -95.34751 | 106 ft | 2 kts | 42° |
| 2026-05-06 17:26 | 29.98510 | -95.34764 | 104 ft | 2 kts | 39° |
| 2026-05-06 17:26 | 29.98497 | -95.34775 | 106 ft | 2 kts | 30° |
| 2026-05-06 17:27 | 29.98482 | -95.34782 | 106 ft | 2 kts | 359° |
| 2026-05-06 17:27 | 29.98466 | -95.34781 | 105 ft | 2 kts | 359° |
| 2026-05-06 17:27 | 29.98449 | -95.34781 | 105 ft | 2 kts | 0° |
| 2026-05-06 17:27 | 29.98433 | -95.34781 | 105 ft | 2 kts | 1° |
| 2026-05-06 17:28 | 29.98416 | -95.34782 | 106 ft | 2 kts | 0° |
| 2026-05-06 17:28 | 29.98401 | -95.34778 | 106 ft | 2 kts | 320° |
| 2026-05-06 17:28 | 29.98390 | -95.34764 | 106 ft | 2 kts | 304° |
| 2026-05-06 17:28 | 29.98381 | -95.34748 | 106 ft | 2 kts | 291° |
| 2026-05-06 17:29 | 29.98379 | -95.34738 | 105 ft | 0 kts | 277° |
| 2026-05-06 17:29 | 29.98378 | -95.34738 | 105 ft | 0 kts | 277° |
| 2026-05-06 17:31 | 29.98378 | -95.34741 | 106 ft | 2 kts | 269° |
| 2026-05-06 17:31 | 29.98379 | -95.34773 | 106 ft | 6 kts | 270° |
| 2026-05-06 17:31 | 29.98379 | -95.34823 | 106 ft | 6 kts | 270° |
| 2026-05-06 17:32 | 29.98378 | -95.34874 | 106 ft | 7 kts | 269° |
| 2026-05-06 17:32 | 29.98378 | -95.34940 | 106 ft | 9 kts | 269° |
| 2026-05-06 17:32 | 29.98379 | -95.35020 | 106 ft | 12 kts | 270° |
| 2026-05-06 17:32 | 29.98379 | -95.35129 | 106 ft | 14 kts | 270° |
| 2026-05-06 17:33 | 29.98414 | -95.35221 | 106 ft | 13 kts | 327° |
| 2026-05-06 17:33 | 29.98493 | -95.35271 | 106 ft | 13 kts | 332° |
| 2026-05-06 17:33 | 29.98571 | -95.35319 | 106 ft | 13 kts | 332° |
| 2026-05-06 17:33 | 29.98653 | -95.35369 | 106 ft | 14 kts | 332° |
| 2026-05-06 17:34 | 29.98741 | -95.35424 | 106 ft | 15 kts | 332° |
| 2026-05-06 17:34 | 29.98834 | -95.35482 | 106 ft | 16 kts | 331° |
| 2026-05-06 17:34 | 29.98870 | -95.35584 | 106 ft | 15 kts | 249° |
| 2026-05-06 17:34 | 29.98826 | -95.35692 | 105 ft | 15 kts | 233° |
| 2026-05-06 17:35 | 29.98785 | -95.35759 | 108 ft | 7 kts | 230° |
| 2026-05-06 17:35 | 29.98742 | -95.35757 | 108 ft | 0 kts | 150° |
| 2026-05-06 17:36 | 29.98581 | -95.35659 | 107 ft | 59 kts | 152° |
| 2026-05-06 17:36 | 29.98024 | -95.35319 | 107 ft | 119 kts | 152° |
| 2026-05-06 17:36 | 29.97144 | -95.34795 | 195 ft | 159 kts | 153° |
| 2026-05-06 17:37 | 29.96160 | -95.34201 | 840 ft | 161 kts | 160° |
| 2026-05-06 17:37 | 29.94991 | -95.34026 | 1300 ft | 183 kts | 193° |
| 2026-05-06 17:37 | 29.93905 | -95.34862 | 1845 ft | 203 kts | 234° |
| 2026-05-06 17:37 | 29.93535 | -95.36532 | 2085 ft | 240 kts | 274° |
| 2026-05-06 17:38 | 29.93944 | -95.38502 | 2512 ft | 261 kts | 278° |
| 2026-05-06 17:38 | 29.94176 | -95.40564 | 3444 ft | 262 kts | 276° |
| 2026-05-06 17:38 | 29.94497 | -95.42636 | 4307 ft | 266 kts | 277° |
| 2026-05-06 17:38 | 29.94843 | -95.44732 | 4801 ft | 271 kts | 276° |
| 2026-05-06 17:39 | 29.95169 | -95.46859 | 4964 ft | 269 kts | 277° |
| 2026-05-06 17:39 | 29.95495 | -95.48981 | 5003 ft | 273 kts | 277° |
| 2026-05-06 17:39 | 29.95822 | -95.51123 | 5073 ft | 271 kts | 276° |
| 2026-05-06 17:39 | 29.96130 | -95.53280 | 5566 ft | 273 kts | 273° |
| 2026-05-06 17:40 | 29.96407 | -95.55436 | 6438 ft | 272 kts | 277° |
| 2026-05-06 17:40 | 29.96763 | -95.57588 | 7228 ft | 274 kts | 277° |
| 2026-05-06 17:40 | 29.97116 | -95.59762 | 8078 ft | 275 kts | 277° |
| 2026-05-06 17:40 | 29.97336 | -95.61226 | 8742 ft | 274 kts | 276° |
| 2026-05-06 17:41 | 29.97669 | -95.63407 | 9463 ft | 279 kts | 277° |
| 2026-05-06 17:41 | 29.98099 | -95.65610 | 10145 ft | 284 kts | 280° |
| 2026-05-06 17:41 | 29.98592 | -95.67853 | 10426 ft | 304 kts | 280° |
| 2026-05-06 17:41 | 29.99140 | -95.70296 | 10587 ft | 324 kts | 281° |
| 2026-05-06 17:42 | 29.99716 | -95.72857 | 10980 ft | 334 kts | 280° |
| 2026-05-06 17:42 | 30.00301 | -95.75469 | 11523 ft | 338 kts | 280° |
| 2026-05-06 17:42 | 30.00889 | -95.78103 | 12162 ft | 340 kts | 280° |
| 2026-05-06 17:42 | 30.01476 | -95.80753 | 12799 ft | 342 kts | 279° |
| 2026-05-06 17:43 | 30.02064 | -95.83424 | 13440 ft | 345 kts | 279° |
| 2026-05-06 17:43 | 30.02656 | -95.86124 | 14006 ft | 349 kts | 279° |
| 2026-05-06 17:43 | 30.03251 | -95.88837 | 14705 ft | 348 kts | 279° |
| 2026-05-06 17:43 | 30.03843 | -95.91542 | 15387 ft | 348 kts | 278° |
| 2026-05-06 17:44 | 30.04438 | -95.94272 | 15774 ft | 352 kts | 278° |
| 2026-05-06 17:44 | 30.05038 | -95.97025 | 15846 ft | 357 kts | 278° |
| 2026-05-06 17:44 | 30.05649 | -95.99831 | 15854 ft | 362 kts | 278° |
| 2026-05-06 17:44 | 30.06261 | -96.02640 | 15835 ft | 360 kts | 278° |
| 2026-05-06 17:45 | 30.06871 | -96.05438 | 15835 ft | 359 kts | 278° |
| 2026-05-06 17:45 | 30.07325 | -96.08246 | 15815 ft | 353 kts | 269° |
| 2026-05-06 17:45 | 30.07291 | -96.11059 | 15810 ft | 349 kts | 261° |
| 2026-05-06 17:45 | 30.06893 | -96.13805 | 15797 ft | 346 kts | 255° |
| 2026-05-06 17:46 | 30.06402 | -96.16530 | 15778 ft | 347 kts | 255° |
| 2026-05-06 17:46 | 30.05909 | -96.19258 | 15777 ft | 348 kts | 255° |
| 2026-05-06 17:46 | 30.05419 | -96.21992 | 15767 ft | 348 kts | 255° |
| 2026-05-06 17:46 | 30.04932 | -96.24729 | 15781 ft | 348 kts | 255° |
| 2026-05-06 17:47 | 30.04448 | -96.27467 | 15782 ft | 348 kts | 255° |
| 2026-05-06 17:47 | 30.03965 | -96.30204 | 15784 ft | 348 kts | 255° |
| 2026-05-06 17:47 | 30.03483 | -96.32944 | 15780 ft | 348 kts | 255° |
| 2026-05-06 17:47 | 30.03000 | -96.35683 | 15785 ft | 348 kts | 255° |
| 2026-05-06 17:48 | 30.02518 | -96.38419 | 15783 ft | 349 kts | 255° |
| 2026-05-06 17:48 | 30.02034 | -96.41161 | 15818 ft | 349 kts | 255° |
| 2026-05-06 17:48 | 30.01557 | -96.43858 | 15825 ft | 349 kts | 255° |
| 2026-05-06 17:48 | 30.01072 | -96.46601 | 15822 ft | 350 kts | 255° |
| 2026-05-06 17:49 | 30.00585 | -96.49354 | 15815 ft | 350 kts | 255° |
| 2026-05-06 17:49 | 30.00099 | -96.52097 | 15819 ft | 349 kts | 255° |
| 2026-05-06 17:49 | 29.99617 | -96.54836 | 15838 ft | 347 kts | 256° |
| 2026-05-06 17:49 | 29.99486 | -96.57572 | 15830 ft | 340 kts | 270° |
| 2026-05-06 17:50 | 29.99885 | -96.60223 | 15828 ft | 331 kts | 276° |
| 2026-05-06 17:50 | 30.00379 | -96.62793 | 15574 ft | 325 kts | 276° |
| 2026-05-06 17:50 | 30.00879 | -96.65316 | 15258 ft | 321 kts | 277° |
| 2026-05-06 17:50 | 30.01367 | -96.67816 | 14932 ft | 318 kts | 276° |
| 2026-05-06 17:51 | 30.01843 | -96.70306 | 14584 ft | 318 kts | 276° |
| 2026-05-06 17:51 | 30.02311 | -96.72793 | 14211 ft | 317 kts | 276° |
| 2026-05-06 17:51 | 30.02775 | -96.75277 | 13826 ft | 316 kts | 276° |
| 2026-05-06 17:51 | 30.03229 | -96.77724 | 13429 ft | 316 kts | 276° |
| 2026-05-06 17:52 | 30.03687 | -96.80197 | 13034 ft | 314 kts | 277° |
| 2026-05-06 17:52 | 30.04142 | -96.82658 | 12648 ft | 313 kts | 277° |
| 2026-05-06 17:52 | 30.04594 | -96.85109 | 12287 ft | 312 kts | 277° |
| 2026-05-06 17:52 | 30.05061 | -96.87546 | 11932 ft | 311 kts | 280° |
| 2026-05-06 17:53 | 30.05715 | -96.89931 | 11634 ft | 312 kts | 284° |
| 2026-05-06 17:53 | 30.06452 | -96.92282 | 11331 ft | 310 kts | 285° |
| 2026-05-06 17:53 | 30.07183 | -96.94585 | 11187 ft | 301 kts | 285° |
| 2026-05-06 17:53 | 30.07890 | -96.96850 | 10914 ft | 298 kts | 285° |
| 2026-05-06 17:54 | 30.08572 | -96.99074 | 10822 ft | 288 kts | 285° |
| 2026-05-06 17:54 | 30.09222 | -97.01217 | 10742 ft | 277 kts | 284° |
| 2026-05-06 17:54 | 30.09844 | -97.03280 | 10555 ft | 268 kts | 284° |
| 2026-05-06 17:54 | 30.10452 | -97.05310 | 10203 ft | 267 kts | 284° |
| 2026-05-06 17:55 | 30.11053 | -97.07346 | 9789 ft | 268 kts | 282° |
| 2026-05-06 17:55 | 30.11231 | -97.09450 | 9331 ft | 263 kts | 264° |
| 2026-05-06 17:55 | 30.11103 | -97.11548 | 8937 ft | 262 kts | 263° |
| 2026-05-06 17:55 | 30.10971 | -97.13646 | 8514 ft | 262 kts | 263° |
| 2026-05-06 17:56 | 30.10841 | -97.15751 | 8099 ft | 263 kts | 263° |
| 2026-05-06 17:56 | 30.10715 | -97.17861 | 7698 ft | 264 kts | 264° |
| 2026-05-06 17:56 | 30.10593 | -97.19966 | 7356 ft | 261 kts | 264° |
| 2026-05-06 17:56 | 30.10475 | -97.22040 | 7071 ft | 258 kts | 264° |
| 2026-05-06 17:57 | 30.10359 | -97.24086 | 6797 ft | 254 kts | 264° |
| 2026-05-06 17:57 | 30.10243 | -97.26130 | 6527 ft | 256 kts | 264° |
| 2026-05-06 17:57 | 30.10127 | -97.28189 | 6244 ft | 258 kts | 264° |
| 2026-05-06 17:57 | 30.10011 | -97.30231 | 6103 ft | 251 kts | 264° |
| 2026-05-06 17:58 | 30.09899 | -97.32218 | 5978 ft | 246 kts | 264° |
| 2026-05-06 17:58 | 30.09795 | -97.34200 | 5738 ft | 249 kts | 264° |
| 2026-05-06 17:58 | 30.09693 | -97.36215 | 5516 ft | 254 kts | 264° |
| 2026-05-06 17:58 | 30.09592 | -97.38238 | 5174 ft | 259 kts | 264° |
| 2026-05-06 17:59 | 30.09488 | -97.40331 | 4877 ft | 261 kts | 264° |
| 2026-05-06 17:59 | 30.09384 | -97.42403 | 4578 ft | 256 kts | 265° |
| 2026-05-06 17:59 | 30.09283 | -97.44418 | 4318 ft | 247 kts | 265° |
| 2026-05-06 17:59 | 30.09187 | -97.46342 | 4149 ft | 231 kts | 264° |
| 2026-05-06 18:00 | 30.09094 | -97.48169 | 4021 ft | 228 kts | 264° |
| 2026-05-06 18:00 | 30.08999 | -97.50000 | 4002 ft | 229 kts | 265° |
| 2026-05-06 18:00 | 30.08904 | -97.51822 | 3991 ft | 225 kts | 265° |
| 2026-05-06 18:00 | 30.08812 | -97.53619 | 3983 ft | 225 kts | 265° |
| 2026-05-06 18:01 | 30.08712 | -97.55455 | 3664 ft | 230 kts | 265° |
| 2026-05-06 18:01 | 30.08617 | -97.57242 | 3346 ft | 215 kts | 265° |
| 2026-05-06 18:01 | 30.08527 | -97.58903 | 3071 ft | 199 kts | 266° |
| 2026-05-06 18:01 | 30.08444 | -97.60425 | 2861 ft | 180 kts | 267° |
| 2026-05-06 18:02 | 30.08474 | -97.61822 | 2505 ft | 173 kts | 281° |
| 2026-05-06 18:02 | 30.08839 | -97.63088 | 2283 ft | 161 kts | 300° |
| 2026-05-06 18:02 | 30.09464 | -97.64137 | 2137 ft | 156 kts | 316° |
| 2026-05-06 18:02 | 30.10298 | -97.64912 | 1996 ft | 155 kts | 330° |
| 2026-05-06 18:03 | 30.11284 | -97.65397 | 1797 ft | 154 kts | 350° |
| 2026-05-06 18:03 | 30.12349 | -97.65550 | 1624 ft | 154 kts | 358° |
| 2026-05-06 18:03 | 30.13405 | -97.65605 | 1397 ft | 148 kts | 359° |
| 2026-05-06 18:03 | 30.14407 | -97.65629 | 1206 ft | 144 kts | 1° |
| 2026-05-06 18:04 | 30.15407 | -97.65655 | 1010 ft | 141 kts | 359° |
| 2026-05-06 18:04 | 30.16375 | -97.65710 | 844 ft | 139 kts | 0° |
| 2026-05-06 18:04 | 30.17344 | -97.65726 | 684 ft | 140 kts | 2° |
| 2026-05-06 18:04 | 30.18300 | -97.65734 | 528 ft | 131 kts | 0° |
| 2026-05-06 18:05 | 30.19050 | -97.65751 | 529 ft | 78 kts | 358° |
| 2026-05-06 18:05 | 30.19380 | -97.65760 | 527 ft | 17 kts | 358° |
| 2026-05-06 18:05 | 30.19486 | -97.65763 | 527 ft | 15 kts | 356° |
| 2026-05-06 18:05 | 30.19588 | -97.65772 | 526 ft | 15 kts | 355° |
| 2026-05-06 18:06 | 30.19704 | -97.65789 | 524 ft | 18 kts | 349° |
| 2026-05-06 18:06 | 30.19811 | -97.65838 | 524 ft | 12 kts | 330° |
| 2026-05-06 18:06 | 30.19855 | -97.65868 | 525 ft | 6 kts | 329° |
| 2026-05-06 18:06 | 30.19890 | -97.65893 | 525 ft | 6 kts | 326° |
| 2026-05-06 18:07 | 30.19916 | -97.65928 | 526 ft | 6 kts | 294° |
| 2026-05-06 18:07 | 30.19921 | -97.65973 | 526 ft | 6 kts | 267° |
| 2026-05-06 18:07 | 30.19919 | -97.66019 | 526 ft | 6 kts | 267° |
| 2026-05-06 18:07 | 30.19916 | -97.66063 | 526 ft | 6 kts | 266° |
| 2026-05-06 18:08 | 30.19915 | -97.66107 | 526 ft | 5 kts | 271° |
| 2026-05-06 18:08 | 30.19915 | -97.66150 | 526 ft | 5 kts | 267° |
| 2026-05-06 18:08 | 30.19912 | -97.66193 | 526 ft | 5 kts | 268° |
| 2026-05-06 18:08 | 30.19913 | -97.66235 | 526 ft | 5 kts | 271° |
| 2026-05-06 18:09 | 30.19914 | -97.66276 | 526 ft | 5 kts | 270° |
| 2026-05-06 18:09 | 30.19914 | -97.66318 | 526 ft | 5 kts | 271° |
| 2026-05-06 18:09 | 30.19915 | -97.66366 | 526 ft | 6 kts | 271° |
| 2026-05-06 18:09 | 30.19916 | -97.66422 | 526 ft | 8 kts | 271° |
| 2026-05-06 18:10 | 30.19912 | -97.66486 | 526 ft | 8 kts | 265° |
| 2026-05-06 18:10 | 30.19909 | -97.66557 | 526 ft | 9 kts | 267° |
| 2026-05-06 18:10 | 30.19906 | -97.66636 | 526 ft | 10 kts | 267° |
| 2026-05-06 18:10 | 30.19903 | -97.66723 | 526 ft | 11 kts | 268° |
| 2026-05-06 18:11 | 30.19900 | -97.66822 | 526 ft | 13 kts | 273° |
| 2026-05-06 18:11 | 30.19902 | -97.66925 | 526 ft | 13 kts | 272° |
| 2026-05-06 18:11 | 30.19966 | -97.66987 | 526 ft | 13 kts | 353° |
| 2026-05-06 18:11 | 30.20055 | -97.66989 | 526 ft | 13 kts | 355° |
| 2026-05-06 18:12 | 30.20091 | -97.67051 | 526 ft | 9 kts | 268° |
| 2026-05-06 18:12 | 30.20116 | -97.67085 | 526 ft | 7 kts | 4° |
| 2026-05-06 18:12 | 30.20156 | -97.67063 | 526 ft | 4 kts | 30° |
| 2026-05-06 18:12 | 30.20164 | -97.67057 | 526 ft | 0 kts | 30° |